createdAt,value
2022-09-04T00:02:30.962Z,8.50
2022-09-04T00:05:07.580Z,7.95
2022-09-04T00:07:40.893Z,8.68
2022-09-04T00:10:19.517Z,8.75
2022-09-04T00:12:55.443Z,9.00
2022-09-04T00:15:27.677Z,9.00
2022-09-04T00:18:01.153Z,8.98
2022-09-04T00:20:37.515Z,8.75
2022-09-04T00:23:14.855Z,9.20
2022-09-04T00:25:50.543Z,8.77
2022-09-04T00:28:26.433Z,9.55
2022-09-04T00:31:04.513Z,9.35
2022-09-04T00:33:42.159Z,8.50
2022-09-04T00:36:13.090Z,9.80
2022-09-04T00:38:45.501Z,10.52
2022-09-04T00:41:25.139Z,9.10
2022-09-04T00:44:26.635Z,9.27
2022-09-04T00:47:21.173Z,9.23
2022-09-04T00:50:05.177Z,9.18
2022-09-04T00:52:58.544Z,9.88
2022-09-04T00:55:52.669Z,9.35
2022-09-04T00:58:42.592Z,8.48
2022-09-04T01:01:20.853Z,8.95
2022-09-04T01:04:16.567Z,8.90
2022-09-04T01:06:55.172Z,8.80
2022-09-04T01:09:47.870Z,9.05
2022-09-04T01:12:28.285Z,8.90
2022-09-04T01:15:11.427Z,9.02
2022-09-04T01:17:49.979Z,8.52
2022-09-04T01:20:27.855Z,9.20
2022-09-04T01:23:13.271Z,9.15
2022-09-04T01:25:59.807Z,8.82
2022-09-04T01:28:33.913Z,8.88
2022-09-04T01:31:13.674Z,9.43
2022-09-04T01:33:49.353Z,9.27
2022-09-04T01:36:26.377Z,9.32
2022-09-04T01:38:57.349Z,9.43
2022-09-04T01:41:33.936Z,9.95
2022-09-04T01:44:08.052Z,10.30
2022-09-04T01:46:50.248Z,9.55
2022-09-04T01:49:29.189Z,9.80
2022-09-04T01:52:06.838Z,10.25
2022-09-04T01:54:44.982Z,9.90
2022-09-04T01:57:25.645Z,10.65
2022-09-04T02:00:03.769Z,9.80
2022-09-04T02:02:42.622Z,9.45
2022-09-04T02:05:19.499Z,10.55
2022-09-04T02:07:55.021Z,9.73
2022-09-04T02:10:35.823Z,10.70
2022-09-04T02:13:15.242Z,10.38
2022-09-04T02:15:54.072Z,10.20
2022-09-04T02:18:36.012Z,10.30
2022-09-04T02:21:09.185Z,11.25
2022-09-04T02:23:45.441Z,10.43
2022-09-04T02:26:18.152Z,10.70
2022-09-04T02:28:57.415Z,10.82
2022-09-04T02:31:34.219Z,10.68
2022-09-04T02:34:08.965Z,11.35
2022-09-04T02:36:44.305Z,10.80
2022-09-04T02:39:27.782Z,10.50
2022-09-04T02:42:05.335Z,11.15
2022-09-04T02:44:47.694Z,10.88
2022-09-04T02:47:24.947Z,10.20
2022-09-04T02:50:00.729Z,11.30
2022-09-04T02:52:59.691Z,10.57
2022-09-04T02:55:53.892Z,10.07
2022-09-04T02:58:36.932Z,10.15
2022-09-04T03:01:13.581Z,10.57
2022-09-04T03:03:48.029Z,10.88
2022-09-04T03:06:22.848Z,10.40
2022-09-04T03:08:57.211Z,10.80
2022-09-04T03:11:32.331Z,11.20
2022-09-04T03:14:08.238Z,10.77
2022-09-04T03:16:43.416Z,10.07
2022-09-04T03:19:19.086Z,10.82
2022-09-04T03:21:54.266Z,10.60
2022-09-04T03:24:29.225Z,10.45
2022-09-04T03:27:02.587Z,10.23
2022-09-04T03:29:39.459Z,10.10
2022-09-04T03:32:19.148Z,10.20
2022-09-04T03:34:55.667Z,10.38
2022-09-04T03:37:41.471Z,10.83
2022-09-04T03:40:34.876Z,10.77
2022-09-04T03:43:16.153Z,11.33
2022-09-04T03:45:52.608Z,10.85
2022-09-04T03:48:35.381Z,10.97
2022-09-04T03:51:11.709Z,10.05
2022-09-04T03:53:44.171Z,10.57
2022-09-04T03:56:48.331Z,10.70
2022-09-04T03:59:29.015Z,10.23
2022-09-04T04:02:08.527Z,9.93
2022-09-04T04:05:37.035Z,10.70
2022-09-04T04:08:45.004Z,9.95
2022-09-04T04:11:30.248Z,10.10
2022-09-04T04:14:15.236Z,9.93
2022-09-04T04:16:56.202Z,10.57
2022-09-04T04:19:53.413Z,10.57
2022-09-04T04:22:37.981Z,9.93
2022-09-04T04:25:52.226Z,10.27
2022-09-04T04:28:37.851Z,10.02
2022-09-04T04:31:14.530Z,10.43
2022-09-04T04:33:55.356Z,10.13
2022-09-04T04:36:33.776Z,10.00
2022-09-04T04:39:14.055Z,10.05
2022-09-04T04:42:06.895Z,10.05
2022-09-04T04:45:23.464Z,11.07
2022-09-04T04:48:18.712Z,10.02
2022-09-04T04:50:54.450Z,10.55
2022-09-04T04:53:31.779Z,10.80
2022-09-04T04:56:07.753Z,10.70
2022-09-04T04:58:51.432Z,10.10
2022-09-04T05:01:33.067Z,10.82
2022-09-04T05:04:11.418Z,11.35
2022-09-04T05:06:48.594Z,11.43
2022-09-04T05:09:23.954Z,11.10
2022-09-04T05:12:00.555Z,11.50
2022-09-04T05:14:41.130Z,11.50
2022-09-04T05:17:21.547Z,12.85
2022-09-04T05:19:57.272Z,11.55
2022-09-04T05:22:34.404Z,11.63
2022-09-04T05:25:12.039Z,12.10
2022-09-04T05:27:57.404Z,12.70
2022-09-04T05:30:39.544Z,11.48
2022-09-04T05:33:19.011Z,12.88
2022-09-04T05:35:55.290Z,11.40
2022-09-04T05:38:29.419Z,12.07
2022-09-04T05:41:07.568Z,11.95
2022-09-04T05:44:00.336Z,12.02
2022-09-04T05:46:43.582Z,12.05
2022-09-04T05:49:25.684Z,11.93
2022-09-04T05:52:11.878Z,11.20
2022-09-04T05:55:10.570Z,11.27
2022-09-04T05:57:56.585Z,11.57
2022-09-04T06:00:32.137Z,11.18
2022-09-04T06:03:39.655Z,11.57
2022-09-04T06:06:15.332Z,10.85
2022-09-04T06:09:03.250Z,11.18
2022-09-04T06:11:42.077Z,10.93
2022-09-04T06:14:35.491Z,10.73
2022-09-04T06:17:22.329Z,11.00
2022-09-04T06:20:06.261Z,10.60
2022-09-04T06:22:53.819Z,10.43
2022-09-04T06:25:50.037Z,10.65
2022-09-04T06:28:56.339Z,10.27
2022-09-04T06:31:51.387Z,9.75
2022-09-04T06:34:34.654Z,9.90
2022-09-04T06:37:13.175Z,10.27
2022-09-04T06:40:00.335Z,9.88
2022-09-04T06:42:42.001Z,9.52
2022-09-04T06:45:23.628Z,8.90
2022-09-04T06:48:04.312Z,9.45
2022-09-04T06:50:39.869Z,8.90
2022-09-04T06:53:27.525Z,8.63
2022-09-04T06:56:11.304Z,7.93
2022-09-04T06:58:56.007Z,8.27
2022-09-04T07:01:40.505Z,8.35
2022-09-04T07:04:20.735Z,12.80
2022-09-04T07:07:06.375Z,12.63
2022-09-04T07:09:39.769Z,18.80
2022-09-04T07:12:41.349Z,21.63
2022-09-04T07:15:48.194Z,8.95
2022-09-04T07:18:42.623Z,10.02
2022-09-04T07:21:17.893Z,7.28
2022-09-04T07:23:57.846Z,7.30
2022-09-04T07:26:36.569Z,7.32
2022-09-04T07:29:16.320Z,6.18
2022-09-04T07:31:53.633Z,6.95
2022-09-04T07:34:28.991Z,6.35
2022-09-04T07:37:02.645Z,6.57
2022-09-04T07:39:38.814Z,6.00
2022-09-04T07:42:12.736Z,7.20
2022-09-04T07:44:46.848Z,5.50
2022-09-04T07:47:19.662Z,5.50
2022-09-04T07:49:57.850Z,5.63
2022-09-04T07:52:45.477Z,5.30
2022-09-04T07:55:34.571Z,5.55
2022-09-04T07:58:31.586Z,5.30
2022-09-04T08:01:23.371Z,5.38
2022-09-04T08:04:10.513Z,5.90
2022-09-04T08:06:46.222Z,4.80
2022-09-04T08:09:45.268Z,4.68
2022-09-04T08:12:44.914Z,4.18
2022-09-04T08:15:22.004Z,4.13
2022-09-04T08:18:16.605Z,4.45
2022-09-04T08:20:49.157Z,4.18
2022-09-04T08:23:39.881Z,4.82
2022-09-04T08:26:18.766Z,4.95
2022-09-04T08:29:16.791Z,4.47
2022-09-04T08:31:58.535Z,4.90
2022-09-04T08:35:00.666Z,5.13
2022-09-04T08:37:33.765Z,4.22
2022-09-04T08:40:31.191Z,4.18
2022-09-04T08:43:34.233Z,4.63
2022-09-04T08:46:27.001Z,4.70
2022-09-04T08:49:32.105Z,4.97
2022-09-04T08:53:04.137Z,5.03
2022-09-04T08:55:47.697Z,4.55
2022-09-04T08:58:47.643Z,4.35
2022-09-04T09:02:04.205Z,4.85
2022-09-04T09:05:07.695Z,4.53
2022-09-04T09:08:09.988Z,4.38
2022-09-04T09:10:45.851Z,5.03
2022-09-04T09:13:50.356Z,4.50
2022-09-04T09:16:23.989Z,4.72
2022-09-04T09:19:12.167Z,4.43
2022-09-04T09:21:49.361Z,4.25
2022-09-04T09:24:59.822Z,4.35
2022-09-04T09:28:09.682Z,4.05
2022-09-04T09:30:53.117Z,3.53
2022-09-04T09:33:55.476Z,4.00
2022-09-04T09:36:53.344Z,4.10
2022-09-04T09:40:02.378Z,4.28
2022-09-04T09:43:03.186Z,4.03
2022-09-04T09:46:00.848Z,4.10
2022-09-04T09:48:50.319Z,3.72
2022-09-04T09:51:56.869Z,4.07
2022-09-04T09:54:43.695Z,4.10
2022-09-04T09:58:02.482Z,4.43
2022-09-04T10:00:46.460Z,4.47
2022-09-04T10:03:44.771Z,5.50
2022-09-04T10:06:41.248Z,5.28
2022-09-04T10:09:44.289Z,5.32
2022-09-04T10:12:51.715Z,4.88
2022-09-04T10:15:59.615Z,4.82
2022-09-04T10:19:04.622Z,5.03
2022-09-04T10:22:09.928Z,5.15
2022-09-04T10:25:10.925Z,5.10
2022-09-04T10:28:26.103Z,4.78
2022-09-04T10:31:19.917Z,5.32
2022-09-04T10:34:02.003Z,5.65
2022-09-04T10:36:42.829Z,5.50
2022-09-04T10:39:41.208Z,5.38
2022-09-04T10:42:36.759Z,5.82
2022-09-04T10:45:27.148Z,5.75
2022-09-04T10:48:36.287Z,5.63
2022-09-04T10:51:35.298Z,5.50
2022-09-04T10:54:28.799Z,5.13
2022-09-04T10:57:08.828Z,5.30
2022-09-04T10:59:59.087Z,4.72
2022-09-04T11:03:13.865Z,5.78
2022-09-04T11:06:08.765Z,7.00
2022-09-04T11:08:58.669Z,4.72
2022-09-04T11:12:01.539Z,5.30
2022-09-04T11:15:03.609Z,5.30
2022-09-04T11:17:57.669Z,7.93
2022-09-04T11:21:16.053Z,5.22
2022-09-04T11:24:24.512Z,5.30
2022-09-04T11:27:35.501Z,9.38
2022-09-04T11:30:12.192Z,7.95
2022-09-04T11:33:09.321Z,6.43
2022-09-04T11:36:05.888Z,5.15
2022-09-04T11:39:20.185Z,4.70
2022-09-04T11:42:35.412Z,4.72
2022-09-04T11:45:31.949Z,4.80
2022-09-04T11:48:42.202Z,6.35
2022-09-04T11:51:49.252Z,7.45
2022-09-04T11:54:34.506Z,4.80
2022-09-04T11:57:23.655Z,8.38
2022-09-04T12:00:09.556Z,7.90
2022-09-04T12:03:10.506Z,5.40
2022-09-04T12:05:56.312Z,4.50
2022-09-04T12:08:57.304Z,4.55
2022-09-04T12:11:55.218Z,4.82
2022-09-04T12:14:43.957Z,4.32
2022-09-04T12:17:39.310Z,4.97
2022-09-04T12:20:41.191Z,3.90
2022-09-04T12:23:34.592Z,3.72
2022-09-04T12:26:52.048Z,4.07
2022-09-04T12:30:09.255Z,3.63
2022-09-04T12:33:10.620Z,3.83
2022-09-04T12:36:22.408Z,4.00
2022-09-04T12:39:17.773Z,4.00
2022-09-04T12:41:57.121Z,3.83
2022-09-04T12:44:38.104Z,4.15
2022-09-04T12:47:22.816Z,3.55
2022-09-04T12:50:08.610Z,4.13
2022-09-04T12:52:51.137Z,3.80
2022-09-04T12:55:33.413Z,3.78
2022-09-04T12:58:18.480Z,3.83
2022-09-04T13:00:56.734Z,3.65
2022-09-04T13:03:34.924Z,4.00
2022-09-04T13:06:18.245Z,3.70
2022-09-04T13:08:57.177Z,3.65
2022-09-04T13:11:41.397Z,3.55
2022-09-04T13:14:38.992Z,4.10
2022-09-04T13:17:13.829Z,3.90
2022-09-04T13:19:49.250Z,3.78
2022-09-04T13:22:27.637Z,3.88
2022-09-04T13:25:06.715Z,3.78
2022-09-04T13:27:48.237Z,4.03
2022-09-04T13:30:24.645Z,4.07
2022-09-04T13:33:16.786Z,3.67
2022-09-04T13:36:00.141Z,3.80
2022-09-04T13:38:57.730Z,4.05
2022-09-04T13:41:51.481Z,3.60
2022-09-04T13:44:45.784Z,3.55
2022-09-04T13:47:22.723Z,3.25
2022-09-04T13:49:59.429Z,3.85
2022-09-04T13:52:34.923Z,3.47
2022-09-04T13:55:06.981Z,3.90
2022-09-04T13:57:41.818Z,3.60
2022-09-04T14:00:12.084Z,3.80
2022-09-04T14:02:41.947Z,3.60
2022-09-04T14:05:13.410Z,3.50
2022-09-04T14:07:45.239Z,3.88
2022-09-04T14:10:17.400Z,4.05
2022-09-04T14:13:05.440Z,4.03
2022-09-04T14:15:53.790Z,3.55
2022-09-04T14:18:49.758Z,4.07
2022-09-04T14:21:31.165Z,4.13
2022-09-04T14:24:08.035Z,3.80
2022-09-04T14:26:44.248Z,3.30
2022-09-04T14:29:25.134Z,3.40
2022-09-04T14:32:06.030Z,3.13
2022-09-04T14:34:50.133Z,3.47
2022-09-04T14:37:36.217Z,3.05
2022-09-04T14:40:10.606Z,3.50
2022-09-04T14:42:46.925Z,3.45
2022-09-04T14:45:32.638Z,3.72
2022-09-04T14:48:05.370Z,3.20
2022-09-04T14:50:46.646Z,3.08
2022-09-04T14:53:22.790Z,3.67
2022-09-04T14:56:21.847Z,3.13
2022-09-04T14:58:56.176Z,3.13
2022-09-04T15:01:25.910Z,3.33
2022-09-04T15:03:59.322Z,3.40
2022-09-04T15:06:44.630Z,3.25
2022-09-04T15:09:28.399Z,3.42
2022-09-04T15:12:24.149Z,3.60
2022-09-04T15:14:58.739Z,3.83
2022-09-04T15:17:30.128Z,3.55
2022-09-04T15:20:03.447Z,3.58
2022-09-04T15:22:41.387Z,3.88
2022-09-04T15:25:20.296Z,3.70
2022-09-04T15:27:57.530Z,3.25
2022-09-04T15:30:33.555Z,3.80
2022-09-04T15:33:07.954Z,3.80
2022-09-04T15:35:37.500Z,4.50
2022-09-04T15:38:19.588Z,3.33
2022-09-04T15:41:15.100Z,3.25
2022-09-04T15:43:44.272Z,3.40
2022-09-04T15:46:23.041Z,3.80
2022-09-04T15:48:56.455Z,3.45
2022-09-04T15:51:32.499Z,3.15
2022-09-04T15:54:29.386Z,3.67
2022-09-04T15:57:08.427Z,3.45
2022-09-04T15:59:49.719Z,3.90
2022-09-04T16:02:36.605Z,3.63
2022-09-04T16:05:15.044Z,3.70
2022-09-04T16:07:49.640Z,3.92
2022-09-04T16:10:27.035Z,3.88
2022-09-04T16:13:01.145Z,3.90
2022-09-04T16:15:33.789Z,4.05
2022-09-04T16:18:15.405Z,4.05
2022-09-04T16:20:51.281Z,3.70
2022-09-04T16:23:29.494Z,4.25
2022-09-04T16:26:10.009Z,4.00
2022-09-04T16:28:45.904Z,4.00
2022-09-04T16:31:16.825Z,3.88
2022-09-04T16:33:50.209Z,3.97
2022-09-04T16:36:22.416Z,4.00
2022-09-04T16:38:57.415Z,4.32
2022-09-04T16:41:37.603Z,4.53
2022-09-04T16:44:26.201Z,3.70
2022-09-04T16:47:04.618Z,4.47
2022-09-04T16:49:41.515Z,4.00
2022-09-04T16:52:37.544Z,3.80
2022-09-04T16:55:11.985Z,3.90
2022-09-04T16:57:51.441Z,3.95
2022-09-04T17:00:22.440Z,4.30
2022-09-04T17:03:06.030Z,3.88
2022-09-04T17:05:42.040Z,3.90
2022-09-04T17:08:15.630Z,3.22
2022-09-04T17:10:47.589Z,4.00
2022-09-04T17:13:27.950Z,3.92
2022-09-04T17:16:01.955Z,4.57
2022-09-04T17:18:31.522Z,4.45
2022-09-04T17:25:43.321Z,4.47
2022-09-04T17:29:02.054Z,4.03
2022-09-04T17:29:14.604Z,4.43
2022-09-04T17:29:50.413Z,3.50
2022-09-04T17:33:57.084Z,3.42
2022-09-04T17:40:36.080Z,6.60
2022-09-04T17:40:43.034Z,3.20
2022-09-04T17:41:33.296Z,3.15
2022-09-04T17:44:26.228Z,3.72
2022-09-04T17:47:09.929Z,3.10
2022-09-04T17:49:45.629Z,5.15
2022-09-04T17:52:23.506Z,31.98
2022-09-04T17:54:52.276Z,9.40
2022-09-04T17:57:26.372Z,5.82
2022-09-04T18:00:01.944Z,5.07
2022-09-04T18:02:40.995Z,4.07
2022-09-04T18:05:20.183Z,3.10
2022-09-04T18:08:08.992Z,2.88
2022-09-04T18:10:51.525Z,3.17
2022-09-04T18:13:37.906Z,3.20
2022-09-04T18:16:20.365Z,2.92
2022-09-04T18:18:54.567Z,2.78
2022-09-04T18:21:26.976Z,2.80
2022-09-04T18:24:01.966Z,2.70
2022-09-04T18:26:40.653Z,2.90
2022-09-04T18:36:06.359Z,2.67
2022-09-04T18:37:11.475Z,2.95
2022-09-04T18:37:25.652Z,2.78
2022-09-04T18:38:51.658Z,2.75
2022-09-04T18:50:20.206Z,2.53
2022-09-04T18:50:21.470Z,2.85
2022-09-04T18:50:34.957Z,2.85
2022-09-04T18:51:12.620Z,2.90
2022-09-04T18:53:29.725Z,2.88
2022-09-04T18:56:03.386Z,2.70
2022-09-04T18:58:46.286Z,3.00
2022-09-04T19:01:26.851Z,2.80
2022-09-04T19:03:57.928Z,2.80
2022-09-04T19:06:35.897Z,2.70
2022-09-04T19:09:15.780Z,3.30
2022-09-04T19:11:48.864Z,3.00
2022-09-04T19:14:20.705Z,3.42
2022-09-04T19:16:52.869Z,3.45
2022-09-04T19:19:27.237Z,2.78
2022-09-04T19:22:09.588Z,2.90
2022-09-04T19:24:49.695Z,2.78
2022-09-04T19:27:29.129Z,2.83
2022-09-04T19:30:18.942Z,4.10
2022-09-04T19:33:05.158Z,2.83
2022-09-04T19:35:38.487Z,2.67
2022-09-04T19:43:05.488Z,2.63
2022-09-04T19:46:03.406Z,3.20
2022-09-04T19:46:12.082Z,2.70
2022-09-04T19:47:03.996Z,2.78
2022-09-04T19:53:22.201Z,2.75
2022-09-04T19:53:32.365Z,2.80
2022-09-04T19:55:41.647Z,2.72
2022-09-04T19:58:15.589Z,2.97
2022-09-04T20:00:49.942Z,3.05
2022-09-04T20:03:29.482Z,2.90
2022-09-04T20:06:20.016Z,2.85
2022-09-04T20:08:55.453Z,3.10
2022-09-04T20:11:34.843Z,2.60
2022-09-04T20:14:20.270Z,2.72
2022-09-04T20:17:01.598Z,2.50
2022-09-04T20:19:38.841Z,2.60
2022-09-04T20:22:14.830Z,2.50
2022-09-04T20:25:01.958Z,2.20
2022-09-04T20:27:35.653Z,2.38
2022-09-04T20:30:12.103Z,2.30
2022-09-04T20:32:55.763Z,2.45
2022-09-04T20:35:33.818Z,2.38
2022-09-04T20:38:23.504Z,2.28
2022-09-04T20:40:59.472Z,2.40
2022-09-04T20:43:34.803Z,2.28
2022-09-04T20:49:16.668Z,2.25
2022-09-04T20:52:49.773Z,2.25
2022-09-04T20:52:59.376Z,2.13
2022-09-04T20:55:06.152Z,2.40
2022-09-04T21:03:05.165Z,1.92
2022-09-04T21:03:22.695Z,2.10
2022-09-04T21:03:59.097Z,2.10
2022-09-04T21:06:35.710Z,2.60
2022-09-04T21:09:37.959Z,2.53
2022-09-04T21:12:31.570Z,2.10
2022-09-04T21:15:07.779Z,2.15
2022-09-04T21:17:56.050Z,2.30
2022-09-04T21:20:55.100Z,2.17
2022-09-04T21:24:12.732Z,1.92
2022-09-04T21:27:00.575Z,1.65
2022-09-04T21:29:44.675Z,1.60
2022-09-04T21:32:32.997Z,1.95
2022-09-04T21:35:13.209Z,1.73
2022-09-04T21:37:56.097Z,1.80
2022-09-04T21:41:02.115Z,1.98
2022-09-04T21:43:53.470Z,1.85
2022-09-04T21:46:49.120Z,1.85
2022-09-04T21:49:38.723Z,1.77
2022-09-04T21:52:29.625Z,1.73
2022-09-04T21:59:32.753Z,1.52
2022-09-04T22:02:35.610Z,1.73
2022-09-04T22:02:39.896Z,1.30
2022-09-04T22:04:32.546Z,2.20
2022-09-04T22:11:55.521Z,1.52
2022-09-04T22:13:30.906Z,1.30
2022-09-04T22:13:40.672Z,1.45
2022-09-04T22:16:04.840Z,1.33
2022-09-04T22:18:46.971Z,1.50
2022-09-04T22:21:25.860Z,1.40
2022-09-04T22:24:29.848Z,1.45
2022-09-04T22:27:37.630Z,1.40
2022-09-04T22:30:23.239Z,1.45
2022-09-04T22:33:25.958Z,1.70
2022-09-04T22:36:22.665Z,1.30
2022-09-04T22:39:31.404Z,1.60
2022-09-04T22:42:29.851Z,1.30
2022-09-04T22:45:27.807Z,1.40
2022-09-04T22:48:17.457Z,1.20
2022-09-04T22:50:59.418Z,1.65
2022-09-04T22:53:54.933Z,1.20
2022-09-04T22:56:38.365Z,1.10
2022-09-04T22:59:32.012Z,1.27
2022-09-04T23:03:06.725Z,1.25
2022-09-04T23:06:44.713Z,1.10
2022-09-04T23:13:59.987Z,1.13
2022-09-04T23:14:01.501Z,1.60
2022-09-04T23:15:28.794Z,1.20
2022-09-04T23:22:30.895Z,1.30
2022-09-04T23:26:37.382Z,1.27
2022-09-04T23:26:58.110Z,1.30
2022-09-04T23:27:32.416Z,1.30
2022-09-04T23:30:25.254Z,1.30
2022-09-04T23:33:32.169Z,1.20
2022-09-04T23:36:06.686Z,1.20
2022-09-04T23:39:03.051Z,1.20
2022-09-04T23:41:52.850Z,1.23
2022-09-04T23:45:01.365Z,1.15
2022-09-04T23:48:10.889Z,1.17
2022-09-04T23:50:50.446Z,1.13
2022-09-04T23:53:29.357Z,1.40
2022-09-04T23:56:20.838Z,1.30
2022-09-04T23:59:25.874Z,1.20
